createdAt,value
2022-09-12T00:01:24.141Z,100343.66
2022-09-12T00:03:53.825Z,100343.63
2022-09-12T00:06:24.750Z,100344.47
2022-09-12T00:08:55.710Z,100352.31
2022-09-12T00:11:26.023Z,100342.63
2022-09-12T00:13:57.742Z,100345.22
2022-09-12T00:16:28.118Z,100339.06
2022-09-12T00:18:56.373Z,100337.28
2022-09-12T00:21:24.895Z,100334.63
2022-09-12T00:23:53.253Z,100334.56
2022-09-12T00:26:23.371Z,100327.50
2022-09-12T00:28:53.382Z,100337.16
2022-09-12T00:31:23.968Z,100325.72
2022-09-12T00:33:52.830Z,100324.84
2022-09-12T00:36:23.732Z,100327.41
2022-09-12T00:38:52.394Z,100320.34
2022-09-12T00:41:24.215Z,100321.22
2022-09-12T00:43:55.961Z,100320.28
2022-09-12T00:46:32.819Z,100318.53
2022-09-12T00:49:05.021Z,100324.63
2022-09-12T00:51:37.525Z,100320.22
2022-09-12T00:54:10.887Z,100316.66
2022-09-12T00:56:41.813Z,100316.66
2022-09-12T00:59:19.321Z,100307.84
2022-09-12T01:01:50.707Z,100306.94
2022-09-12T01:04:21.198Z,100297.25
2022-09-12T01:06:51.557Z,100297.19
2022-09-12T01:09:22.666Z,100298.03
2022-09-12T01:11:53.053Z,100297.16
2022-09-12T01:14:22.845Z,100298.00
2022-09-12T01:16:52.232Z,100300.63
2022-09-12T01:19:43.871Z,100303.22
2022-09-12T01:22:33.924Z,100301.41
2022-09-12T01:25:12.532Z,100301.38
2022-09-12T01:27:55.341Z,100296.94
2022-09-12T01:30:54.008Z,100298.69
2022-09-12T01:33:37.362Z,100300.41
2022-09-12T01:36:24.527Z,100296.00
2022-09-12T01:39:00.255Z,100289.81
2022-09-12T01:41:32.055Z,100289.81
2022-09-12T01:44:06.760Z,100284.50
2022-09-12T01:46:46.513Z,100290.63
2022-09-12T01:49:18.902Z,100294.97
2022-09-12T01:51:56.674Z,100293.22
2022-09-12T01:54:30.179Z,100290.56
2022-09-12T01:57:03.450Z,100289.66
2022-09-12T01:59:35.946Z,100285.25
2022-09-12T02:02:10.422Z,100283.50
2022-09-12T02:04:48.840Z,100277.31
2022-09-12T02:07:21.538Z,100276.44
2022-09-12T02:09:55.545Z,100265.03
2022-09-12T02:12:30.714Z,100265.88
2022-09-12T02:15:04.529Z,100256.22
2022-09-12T02:17:39.137Z,100259.72
2022-09-12T02:20:14.634Z,100260.56
2022-09-12T02:22:51.742Z,100260.56
2022-09-12T02:25:23.127Z,100261.44
2022-09-12T02:27:56.335Z,100259.66
2022-09-12T02:30:24.818Z,100257.00
2022-09-12T02:33:02.290Z,100264.00
2022-09-12T02:35:39.547Z,100263.16
2022-09-12T02:38:12.981Z,100261.34
2022-09-12T02:40:42.314Z,100256.09
2022-09-12T02:43:10.699Z,100261.34
2022-09-12T02:45:39.133Z,100266.63
2022-09-12T02:48:14.599Z,100261.34
2022-09-12T02:50:43.175Z,100262.22
2022-09-12T02:53:12.272Z,100254.34
2022-09-12T02:55:42.789Z,100247.34
2022-09-12T02:58:16.746Z,100251.69
2022-09-12T03:00:53.138Z,100239.41
2022-09-12T03:03:43.351Z,100242.06
2022-09-12T03:06:19.182Z,100247.28
2022-09-12T03:09:01.671Z,100246.41
2022-09-12T03:11:52.096Z,100244.66
2022-09-12T03:14:33.963Z,100237.66
2022-09-12T03:17:10.717Z,100236.72
2022-09-12T03:19:57.896Z,100237.59
2022-09-12T03:22:32.529Z,100238.47
2022-09-12T03:25:05.298Z,100243.72
2022-09-12T03:27:37.403Z,100247.19
2022-09-12T03:30:06.382Z,100240.19
2022-09-12T03:32:49.354Z,100243.66
2022-09-12T03:35:23.111Z,100234.88
2022-09-12T03:37:53.218Z,100237.50
2022-09-12T03:40:21.930Z,100237.47
2022-09-12T03:42:50.225Z,100241.84
2022-09-12T03:45:18.734Z,100236.59
2022-09-12T03:47:46.967Z,100234.81
2022-09-12T03:50:15.411Z,100233.88
2022-09-12T03:52:45.158Z,100234.75
2022-09-12T03:55:13.551Z,100239.09
2022-09-12T03:57:41.933Z,100232.97
2022-09-12T04:00:11.342Z,100229.50
2022-09-12T04:02:42.191Z,100232.97
2022-09-12T04:05:10.459Z,100230.28
2022-09-12T04:07:38.708Z,100231.16
2022-09-12T04:10:09.771Z,100231.16
2022-09-12T04:12:39.469Z,100233.78
2022-09-12T04:15:09.126Z,100222.38
2022-09-12T04:17:37.461Z,100227.63
2022-09-12T04:20:06.867Z,100223.25
2022-09-12T04:22:35.245Z,100224.09
2022-09-12T04:25:04.169Z,100219.72
2022-09-12T04:27:33.804Z,100221.47
2022-09-12T04:30:02.354Z,100220.56
2022-09-12T04:32:31.815Z,100218.78
2022-09-12T04:35:00.078Z,100212.63
2022-09-12T04:37:28.373Z,100214.38
2022-09-12T04:39:58.015Z,100217.00
2022-09-12T04:42:26.488Z,100218.75
2022-09-12T04:44:56.116Z,100215.25
2022-09-12T04:47:24.423Z,100219.59
2022-09-12T04:49:52.680Z,100216.97
2022-09-12T04:52:21.055Z,100208.22
2022-09-12T04:54:49.312Z,100214.34
2022-09-12T04:57:17.731Z,100202.97
2022-09-12T04:59:46.010Z,100203.84
2022-09-12T05:02:16.257Z,100205.59
2022-09-12T05:04:46.804Z,100202.97
2022-09-12T05:07:15.064Z,100199.44
2022-09-12T05:09:43.290Z,100197.69
2022-09-12T05:12:11.658Z,100201.19
2022-09-12T05:14:40.595Z,100192.44
2022-09-12T05:17:09.082Z,100187.19
2022-09-12T05:19:39.126Z,100191.59
2022-09-12T05:22:07.430Z,100188.09
2022-09-12T05:24:37.762Z,100194.25
2022-09-12T05:27:06.222Z,100186.34
2022-09-12T05:29:34.675Z,100189.03
2022-09-12T05:32:04.714Z,100196.03
2022-09-12T05:34:33.022Z,100194.31
2022-09-12T05:37:02.662Z,100192.63
2022-09-12T05:39:30.947Z,100189.13
2022-09-12T05:41:59.244Z,100188.28
2022-09-12T05:44:28.151Z,100183.94
2022-09-12T05:46:56.403Z,100182.22
2022-09-12T05:49:24.664Z,100185.78
2022-09-12T05:51:52.934Z,100181.44
2022-09-12T05:54:22.808Z,100192.88
2022-09-12T05:56:51.166Z,100192.03
2022-09-12T05:59:21.189Z,100193.88
2022-09-12T06:01:49.876Z,100196.53
2022-09-12T06:04:18.360Z,100198.38
2022-09-12T06:06:48.608Z,100206.34
2022-09-12T06:09:18.243Z,100209.94
2022-09-12T06:11:48.314Z,100205.59
2022-09-12T06:14:19.406Z,100210.97
2022-09-12T06:16:48.635Z,100211.03
2022-09-12T06:19:18.647Z,100215.50
2022-09-12T06:21:48.329Z,100209.47
2022-09-12T06:24:17.553Z,100213.91
2022-09-12T06:26:47.687Z,100214.91
2022-09-12T06:29:16.843Z,100214.09
2022-09-12T06:31:45.886Z,100214.19
2022-09-12T06:34:16.625Z,100212.53
2022-09-12T06:36:46.913Z,100210.88
2022-09-12T06:39:17.401Z,100212.72
2022-09-12T06:41:48.332Z,100213.66
2022-09-12T06:44:17.898Z,100210.25
2022-09-12T06:46:46.801Z,100212.09
2022-09-12T06:49:15.353Z,100209.56
2022-09-12T06:51:43.648Z,100209.66
2022-09-12T06:54:14.464Z,100207.09
2022-09-12T06:56:42.767Z,100207.22
2022-09-12T06:59:12.507Z,100210.81
2022-09-12T07:01:42.235Z,100202.13
2022-09-12T07:04:11.509Z,100205.72
2022-09-12T07:06:41.414Z,100210.22
2022-09-12T07:09:12.541Z,100208.53
2022-09-12T07:11:42.505Z,100210.38
2022-09-12T07:14:14.010Z,100213.09
2022-09-12T07:16:43.447Z,100210.50
2022-09-12T07:19:12.236Z,100214.09
2022-09-12T07:21:41.014Z,100215.94
2022-09-12T07:24:10.786Z,100216.03
2022-09-12T07:26:41.967Z,100215.22
2022-09-12T07:29:35.833Z,100224.06
2022-09-12T07:32:05.575Z,100217.94
2022-09-12T07:34:34.177Z,100222.41
2022-09-12T07:37:02.469Z,100223.31
2022-09-12T07:39:30.782Z,100216.31
2022-09-12T07:42:00.496Z,100214.59
2022-09-12T07:44:30.541Z,100216.41
2022-09-12T07:46:58.922Z,100205.84
2022-09-12T07:49:27.233Z,100202.38
2022-09-12T07:51:56.862Z,100199.75
2022-09-12T07:54:25.209Z,100201.53
2022-09-12T07:56:56.175Z,100201.56
2022-09-12T07:59:48.831Z,100202.47
2022-09-12T08:02:17.861Z,100203.38
2022-09-12T08:04:47.995Z,100210.44
2022-09-12T08:07:18.372Z,100207.88
2022-09-12T08:09:47.502Z,100212.28
2022-09-12T08:12:17.798Z,100216.69
2022-09-12T08:14:46.112Z,100217.59
2022-09-12T08:17:14.447Z,100213.19
2022-09-12T08:19:44.872Z,100222.03
2022-09-12T08:22:13.201Z,100217.63
2022-09-12T08:24:41.731Z,100222.94
2022-09-12T08:27:09.964Z,100215.88
2022-09-12T08:29:38.249Z,100210.59
2022-09-12T08:32:06.877Z,100216.78
2022-09-12T08:34:35.385Z,100221.19
2022-09-12T08:37:05.499Z,100230.00
2022-09-12T08:39:33.876Z,100221.19
2022-09-12T08:42:03.974Z,100212.38
2022-09-12T08:44:56.370Z,100214.13
2022-09-12T08:47:29.668Z,100210.63
2022-09-12T08:50:05.102Z,100204.44
2022-09-12T08:52:40.667Z,100209.75
2022-09-12T08:55:33.254Z,100202.69
2022-09-12T08:58:02.872Z,100207.09
2022-09-12T09:00:41.090Z,100215.06
2022-09-12T09:03:38.145Z,100215.94
2022-09-12T09:06:18.219Z,100205.34
2022-09-12T09:08:58.380Z,100201.75
2022-09-12T09:11:43.816Z,100203.50
2022-09-12T09:14:51.414Z,100205.28
2022-09-12T09:17:26.288Z,100206.16
2022-09-12T09:20:00.050Z,100207.00
2022-09-12T09:22:38.263Z,100210.53
2022-09-12T09:25:22.074Z,100212.31
2022-09-12T09:27:58.613Z,100213.16
2022-09-12T09:30:26.928Z,100212.28
2022-09-12T09:32:58.610Z,100205.19
2022-09-12T09:35:39.723Z,100198.09
2022-09-12T09:38:23.413Z,100195.41
2022-09-12T09:41:08.103Z,100191.84
2022-09-12T09:43:38.459Z,100194.50
2022-09-12T09:46:07.738Z,100185.63
2022-09-12T09:48:38.242Z,100186.44
2022-09-12T09:51:10.506Z,100183.78
2022-09-12T09:53:44.726Z,100178.41
2022-09-12T09:56:23.352Z,100181.88
2022-09-12T09:58:51.687Z,100174.75
2022-09-12T10:01:20.363Z,100171.16
2022-09-12T10:03:51.066Z,100169.31
2022-09-12T10:06:34.218Z,100165.69
2022-09-12T10:09:21.075Z,100167.41
2022-09-12T10:11:54.135Z,100172.66
2022-09-12T10:14:35.032Z,100168.13
2022-09-12T10:17:22.355Z,100166.31
2022-09-12T10:20:10.539Z,100154.72
2022-09-12T10:22:40.058Z,100154.66
2022-09-12T10:25:13.779Z,100150.16
2022-09-12T10:27:43.742Z,100153.66
2022-09-12T10:30:19.285Z,100154.44
2022-09-12T10:32:51.528Z,100164.97
2022-09-12T10:35:22.635Z,100152.47
2022-09-12T10:37:55.302Z,100141.75
2022-09-12T10:40:26.385Z,100136.34
2022-09-12T10:42:59.240Z,100139.81
2022-09-12T10:45:30.737Z,100134.31
2022-09-12T10:48:05.480Z,100135.06
2022-09-12T10:50:40.172Z,100126.03
2022-09-12T10:53:19.190Z,100125.88
2022-09-12T10:56:06.275Z,100114.22
2022-09-12T10:58:56.848Z,100123.00
2022-09-12T11:01:38.833Z,100115.78
2022-09-12T11:04:25.300Z,100115.56
2022-09-12T11:07:06.702Z,100119.00
2022-09-12T11:09:42.947Z,100120.59
2022-09-12T11:12:21.084Z,100105.38
2022-09-12T11:15:03.785Z,100098.97
2022-09-12T11:17:45.930Z,100096.97
2022-09-12T11:20:41.575Z,100094.06
2022-09-12T11:23:40.054Z,100094.75
2022-09-12T11:26:23.097Z,100084.72
2022-09-12T11:29:01.331Z,100083.84
2022-09-12T11:32:04.733Z,100084.63
2022-09-12T11:34:45.678Z,100085.34
2022-09-12T11:37:34.565Z,100076.28
2022-09-12T11:40:17.643Z,100087.66
2022-09-12T11:42:48.665Z,100079.50
2022-09-12T11:45:20.723Z,100072.34
2022-09-12T11:47:53.081Z,100065.09
2022-09-12T11:50:26.609Z,100068.47
2022-09-12T11:52:58.761Z,100075.31
2022-09-12T11:55:32.445Z,100064.34
2022-09-12T11:58:01.020Z,100063.13
2022-09-12T12:00:33.751Z,100062.84
2022-09-12T12:03:09.061Z,100058.22
2022-09-12T12:05:44.121Z,100053.53
2022-09-12T12:08:14.537Z,100056.00
2022-09-12T12:10:44.803Z,100050.53
2022-09-12T12:13:20.810Z,100048.41
2022-09-12T12:15:52.019Z,100057.03
2022-09-12T12:18:25.015Z,100053.22
2022-09-12T12:20:56.323Z,100054.69
2022-09-12T12:23:28.467Z,100050.84
2022-09-12T12:25:58.718Z,100050.56
2022-09-12T12:29:00.350Z,100051.25
2022-09-12T12:31:28.702Z,100042.91
2022-09-12T12:34:28.092Z,100033.81
2022-09-12T12:36:59.109Z,100032.66
2022-09-12T12:40:04.658Z,100028.84
2022-09-12T12:43:07.951Z,100023.84
2022-09-12T12:46:12.827Z,100019.97
2022-09-12T12:49:11.936Z,100020.75
2022-09-12T12:51:55.931Z,100007.22
2022-09-12T12:54:51.693Z,100010.28
2022-09-12T12:57:48.975Z,99996.47
2022-09-12T13:00:30.019Z,99998.88
2022-09-12T13:03:02.201Z,99993.53
2022-09-12T13:05:39.527Z,99991.31
2022-09-12T13:08:11.329Z,99987.41
2022-09-12T13:10:51.427Z,99990.44
2022-09-12T13:13:26.912Z,99989.81
2022-09-12T13:15:55.261Z,99989.34
2022-09-12T13:18:28.659Z,99986.13
2022-09-12T13:21:08.875Z,99980.22
2022-09-12T13:23:37.605Z,99977.94
2022-09-12T13:26:13.931Z,99980.53
2022-09-12T13:28:42.228Z,99968.69
2022-09-12T13:31:21.380Z,99967.50
2022-09-12T13:33:52.790Z,99965.31
2022-09-12T13:36:51.358Z,99969.38
2022-09-12T13:39:22.948Z,99964.47
2022-09-12T13:42:35.817Z,99966.75
2022-09-12T13:45:07.171Z,99958.03
2022-09-12T13:47:39.088Z,99962.81
2022-09-12T13:50:09.972Z,99958.88
2022-09-12T13:52:39.556Z,99956.88
2022-09-12T13:55:26.249Z,99949.41
2022-09-12T13:58:00.575Z,99952.16
2022-09-12T14:00:31.639Z,99948.50
2022-09-12T14:03:18.304Z,99949.47
2022-09-12T14:05:56.302Z,99949.31
2022-09-12T14:08:25.981Z,99940.91
2022-09-12T14:10:54.700Z,99940.44
2022-09-12T14:13:27.355Z,99940.81
2022-09-12T14:15:57.488Z,99936.38
2022-09-12T14:18:27.648Z,99935.00
2022-09-12T14:21:00.783Z,99926.47
2022-09-12T14:23:32.162Z,99929.38
2022-09-12T14:26:05.021Z,99919.75
2022-09-12T14:28:37.564Z,99919.16
2022-09-12T14:31:07.904Z,99921.31
2022-09-12T14:33:48.573Z,99920.88
2022-09-12T14:36:29.161Z,99914.03
2022-09-12T14:39:00.938Z,99915.31
2022-09-12T14:41:33.013Z,99906.66
2022-09-12T14:44:08.167Z,99900.06
2022-09-12T14:46:38.706Z,99901.50
2022-09-12T14:49:10.642Z,99889.69
2022-09-12T14:51:41.904Z,99888.03
2022-09-12T14:54:38.695Z,99882.41
2022-09-12T14:57:19.232Z,99881.59
2022-09-12T14:59:49.012Z,99882.84
2022-09-12T15:02:25.772Z,99882.41
2022-09-12T15:04:55.768Z,99874.94
2022-09-12T15:07:32.384Z,99880.88
2022-09-12T15:10:02.937Z,99878.09
2022-09-12T15:12:31.257Z,99879.84
2022-09-12T15:15:04.297Z,99870.78
2022-09-12T15:17:32.570Z,99869.13
2022-09-12T15:20:00.863Z,99874.69
2022-09-12T15:22:29.469Z,99872.41
2022-09-12T15:24:58.026Z,99865.44
2022-09-12T15:27:26.667Z,99863.22
2022-09-12T15:29:55.100Z,99858.25
2022-09-12T15:32:30.073Z,99859.41
2022-09-12T15:34:58.426Z,99858.38
2022-09-12T15:37:26.763Z,99857.34
2022-09-12T15:39:55.053Z,99856.31
2022-09-12T15:42:29.295Z,99859.50
2022-09-12T15:45:02.217Z,99855.75
2022-09-12T15:47:32.352Z,99849.44
2022-09-12T15:50:00.678Z,99838.09
2022-09-12T15:52:28.994Z,99838.25
2022-09-12T15:54:57.261Z,99835.03
2022-09-12T15:57:25.596Z,99839.13
2022-09-12T15:59:53.874Z,99843.25
2022-09-12T16:02:22.277Z,99840.06
2022-09-12T16:04:54.629Z,99831.50
2022-09-12T16:07:22.907Z,99832.72
2022-09-12T16:09:51.366Z,99824.91
2022-09-12T16:12:20.034Z,99815.25
2022-09-12T16:14:48.324Z,99819.94
2022-09-12T16:17:16.786Z,99821.81
2022-09-12T16:19:45.062Z,99818.31
2022-09-12T16:22:14.743Z,99810.25
2022-09-12T16:24:43.408Z,99806.00
2022-09-12T16:27:12.028Z,99797.41
2022-09-12T16:29:40.443Z,99805.00
2022-09-12T16:32:08.755Z,99806.44
2022-09-12T16:34:37.014Z,99796.19
2022-09-12T16:37:05.616Z,99792.28
2022-09-12T16:39:35.361Z,99797.25
2022-09-12T16:42:03.762Z,99802.97
2022-09-12T16:44:32.025Z,99794.34
2022-09-12T16:47:00.293Z,99788.47
2022-09-12T16:49:28.538Z,99788.84
2022-09-12T16:51:56.817Z,99798.28
2022-09-12T16:54:25.161Z,99798.69
2022-09-12T16:56:54.801Z,99784.91
2022-09-12T16:59:25.053Z,99778.25
2022-09-12T17:01:53.430Z,99782.34
2022-09-12T17:04:23.730Z,99781.13
2022-09-12T17:06:52.122Z,99782.53
2022-09-12T17:09:21.686Z,99774.94
2022-09-12T17:11:50.312Z,99779.81
2022-09-12T17:14:19.983Z,99780.28
2022-09-12T17:16:51.872Z,99778.91
2022-09-12T17:19:22.788Z,99778.50
2022-09-12T17:21:51.073Z,99777.09
2022-09-12T17:24:20.168Z,99765.03
2022-09-12T17:26:48.586Z,99774.44
2022-09-12T17:29:17.310Z,99781.19
2022-09-12T17:31:47.556Z,99773.66
2022-09-12T17:34:17.541Z,99771.50
2022-09-12T17:36:48.243Z,99771.88
2022-09-12T17:39:16.534Z,99760.72
2022-09-12T17:41:46.043Z,99774.50
2022-09-12T17:44:16.157Z,99770.47
2022-09-12T17:46:44.787Z,99765.56
2022-09-12T17:49:16.420Z,99766.84
2022-09-12T17:51:45.448Z,99768.13
2022-09-12T17:54:16.090Z,99772.22
2022-09-12T17:56:46.493Z,99771.81
2022-09-12T17:59:17.466Z,99767.75
2022-09-12T18:02:04.219Z,99758.34
2022-09-12T18:04:33.941Z,99755.13
2022-09-12T18:07:02.322Z,99767.91
2022-09-12T18:09:30.772Z,99759.28
2022-09-12T18:11:59.342Z,99752.50
2022-09-12T18:14:29.216Z,99753.75
2022-09-12T18:16:57.986Z,99761.22
2022-09-12T18:19:27.059Z,99765.09
2022-09-12T18:21:57.307Z,99763.66
2022-09-12T18:24:26.387Z,99765.78
2022-09-12T18:26:56.567Z,99767.09
2022-09-12T18:29:25.297Z,99762.94
2022-09-12T18:31:53.587Z,99757.91
2022-09-12T18:34:22.820Z,99755.47
2022-09-12T18:36:54.213Z,99758.44
2022-09-12T18:39:27.554Z,99753.41
2022-09-12T18:41:56.779Z,99744.78
2022-09-12T18:44:25.077Z,99738.78
2022-09-12T18:46:53.834Z,99740.78
2022-09-12T18:49:22.101Z,99746.31
2022-09-12T18:51:50.483Z,99731.47
2022-09-12T18:54:20.887Z,99732.53
2022-09-12T18:56:50.598Z,99741.56
2022-09-12T18:59:19.959Z,99748.78
2022-09-12T19:01:48.300Z,99751.59
2022-09-12T19:04:16.861Z,99749.97
2022-09-12T19:06:47.229Z,99743.94
2022-09-12T19:09:17.846Z,99729.88
2022-09-12T19:11:49.746Z,99728.28
2022-09-12T19:14:22.533Z,99728.41
2022-09-12T19:16:52.095Z,99720.56
2022-09-12T19:19:20.512Z,99720.72
2022-09-12T19:21:48.840Z,99727.91
2022-09-12T19:24:19.566Z,99725.38
2022-09-12T19:26:51.005Z,99728.19
2022-09-12T19:29:20.782Z,99727.47
2022-09-12T19:31:49.155Z,99729.34
2022-09-12T19:34:17.439Z,99736.50
2022-09-12T19:36:46.958Z,99736.59
2022-09-12T19:39:17.179Z,99727.78
2022-09-12T19:41:45.685Z,99733.16
2022-09-12T19:44:14.323Z,99733.22
2022-09-12T19:46:44.088Z,99727.06
2022-09-12T19:49:13.247Z,99730.66
2022-09-12T19:51:41.888Z,99732.44
2022-09-12T19:54:11.192Z,99738.63
2022-09-12T19:56:39.495Z,99731.56
2022-09-12T19:59:08.630Z,99732.44
2022-09-12T20:01:37.651Z,99726.19
2022-09-12T20:04:07.605Z,99727.97
2022-09-12T20:06:36.680Z,99721.75
2022-09-12T20:09:05.390Z,99743.88
2022-09-12T20:11:33.917Z,99734.09
2022-09-12T20:14:02.396Z,99736.75
2022-09-12T20:16:31.035Z,99738.53
2022-09-12T20:19:05.985Z,99744.72
2022-09-12T20:21:36.641Z,99737.63
2022-09-12T20:24:07.023Z,99727.88
2022-09-12T20:26:35.743Z,99735.81
2022-09-12T20:29:05.257Z,99726.94
2022-09-12T20:31:33.902Z,99716.28
2022-09-12T20:34:02.407Z,99719.78
2022-09-12T20:36:30.649Z,99725.13
2022-09-12T20:39:02.523Z,99728.63
2022-09-12T20:41:33.236Z,99726.81
2022-09-12T20:44:01.735Z,99725.00
2022-09-12T20:46:30.491Z,99719.69
2022-09-12T20:48:59.452Z,99722.28
2022-09-12T20:51:29.659Z,99709.00
2022-09-12T20:54:03.484Z,99707.19
2022-09-12T20:56:33.475Z,99696.53
2022-09-12T20:59:01.783Z,99696.53
2022-09-12T21:01:31.249Z,99703.59
2022-09-12T21:04:00.821Z,99690.31
2022-09-12T21:06:29.252Z,99688.56
2022-09-12T21:09:00.375Z,99679.72
2022-09-12T21:11:30.314Z,99675.28
2022-09-12T21:13:58.926Z,99670.84
2022-09-12T21:16:27.599Z,99669.09
2022-09-12T21:18:57.355Z,99662.94
2022-09-12T21:21:26.883Z,99665.59
2022-09-12T21:23:59.225Z,99657.66
2022-09-12T21:26:27.828Z,99654.09
2022-09-12T21:28:57.470Z,99656.81
2022-09-12T21:31:26.232Z,99661.25
2022-09-12T21:33:54.574Z,99657.75
2022-09-12T21:36:22.962Z,99665.75
2022-09-12T21:38:51.373Z,99672.88
2022-09-12T21:41:19.721Z,99677.31
2022-09-12T21:43:48.087Z,99673.81
2022-09-12T21:46:18.519Z,99670.28
2022-09-12T21:48:46.837Z,99667.69
2022-09-12T21:51:15.147Z,99666.84
2022-09-12T21:53:43.447Z,99672.19
2022-09-12T21:56:11.802Z,99668.69
2022-09-12T21:58:40.082Z,99674.06
2022-09-12T22:01:09.649Z,99674.97
2022-09-12T22:03:39.666Z,99687.41
2022-09-12T22:06:08.270Z,99677.69
2022-09-12T22:08:38.766Z,99684.81
2022-09-12T22:11:10.213Z,99685.75
2022-09-12T22:13:39.284Z,99689.31
2022-09-12T22:16:08.418Z,99684.06
2022-09-12T22:18:37.405Z,99697.38
2022-09-12T22:21:09.336Z,99695.63
2022-09-12T22:23:58.944Z,99697.41
2022-09-12T22:26:28.115Z,99699.25
2022-09-12T22:28:56.522Z,99699.28
2022-09-12T22:31:24.830Z,99696.69
2022-09-12T22:33:56.994Z,99691.44
2022-09-12T22:40:43.257Z,99688.88
2022-09-12T22:43:12.087Z,99694.19
2022-09-12T22:45:42.162Z,99694.25
2022-09-12T22:48:10.451Z,99696.03
2022-09-12T22:50:38.713Z,99689.88
2022-09-12T22:53:07.036Z,99681.03
2022-09-12T22:55:35.561Z,99685.56
2022-09-12T22:58:05.225Z,99693.59
2022-09-12T23:00:33.843Z,99697.16
2022-09-12T23:03:02.220Z,99688.34
2022-09-12T23:05:30.570Z,99683.94
2022-09-12T23:07:58.941Z,99684.84
2022-09-12T23:10:27.526Z,99695.50
2022-09-12T23:12:56.293Z,99695.56
2022-09-12T23:15:25.913Z,99697.41
2022-09-12T23:17:54.213Z,99696.53
2022-09-12T23:20:22.540Z,99693.03
2022-09-12T23:22:50.901Z,99700.19
2022-09-12T23:25:22.708Z,99684.28
2022-09-12T23:27:51.939Z,99679.03
2022-09-12T23:30:21.308Z,99681.69
2022-09-12T23:32:51.108Z,99677.34
2022-09-12T23:35:19.926Z,99679.13
2022-09-12T23:37:48.406Z,99679.16
2022-09-12T23:40:17.021Z,99670.34
2022-09-12T23:42:45.333Z,99672.16
2022-09-12T23:45:13.586Z,99673.97
2022-09-12T23:47:41.863Z,99675.75
2022-09-12T23:50:11.500Z,99672.28
2022-09-12T23:52:39.774Z,99676.75
2022-09-12T23:55:08.981Z,99670.63
2022-09-12T23:57:37.285Z,99663.59
